Time;durP1;ratioP1;P1;durP2;ratioP2;P2;SDS_P1;SDS_P2;PMS_P1;PMS_P2;Temp;Humidity;BMP_temperature;BMP_pressure;BME280_temperature;BME280_humidity;BME280_pressure;Samples;Min_cycle;Max_cycle;Signal;HPM_P1;HPM_P2
2022/01/17 00:00:14;;;;;;;50.92;9.38;;;;;;;7.09;100.00;99758.50;4926180;29;20091;-81
2022/01/17 00:02:40;;;;;;;50.70;7.20;;;;;;;7.04;100.00;99733.16;4925646;29;20056;-81
2022/01/17 00:05:07;;;;;;;47.90;8.30;;;;;;;6.96;100.00;99748.56;4909558;29;20585;-81
2022/01/17 00:07:33;;;;;;;48.88;8.15;;;;;;;6.92;100.00;99774.91;4907869;29;20446;-80
2022/01/17 00:09:58;;;;;;;45.72;8.23;;;;;;;6.74;100.00;99740.66;4893646;29;20032;-81
2022/01/17 00:12:25;;;;;;;52.40;8.88;;;;;;;6.96;100.00;99810.91;4892146;29;20051;-81
2022/01/17 00:14:50;;;;;;;56.72;10.43;;;;;;;6.86;100.00;99796.28;4925908;29;20024;-81
2022/01/17 00:19:45;;;;;;;54.38;9.90;;;;;;;6.93;100.00;99823.84;4906912;29;20036;-81
2022/01/17 00:22:13;;;;;;;56.78;9.60;;;;;;;6.87;100.00;99828.13;4916292;29;20028;-81
2022/01/17 00:24:40;;;;;;;49.22;8.50;;;;;;;6.88;100.00;99834.31;4910000;29;20044;-81
2022/01/17 00:27:06;;;;;;;51.47;8.27;;;;;;;6.80;100.00;99846.81;4908066;29;20553;-81
2022/01/17 00:29:32;;;;;;;32.75;7.70;;;;;;;6.86;100.00;99844.41;4924644;29;20043;-80
2022/01/17 00:31:57;;;;;;;48.70;8.07;;;;;;;6.76;100.00;99834.06;4923766;29;20032;-82
2022/01/17 00:34:24;;;;;;;39.33;6.38;;;;;;;6.82;100.00;99862.66;4908802;29;20062;-80
2022/01/17 00:36:51;;;;;;;36.85;6.30;;;;;;;6.78;100.00;99827.47;4907484;29;20035;-80
2022/01/17 00:39:16;;;;;;;36.08;6.10;;;;;;;6.66;100.00;99834.44;4923135;29;20032;-81
2022/01/17 00:41:42;;;;;;;31.42;7.03;;;;;;;6.77;95.60;99844.56;4925223;29;20478;-81
2022/01/17 00:44:07;;;;;;;32.75;6.60;;;;;;;6.85;95.44;99880.97;4924245;29;20028;-81
2022/01/17 00:46:33;;;;;;;29.25;6.70;;;;;;;6.89;94.65;99849.31;4910009;29;20028;-80
2022/01/17 00:48:59;;;;;;;21.80;4.32;;;;;;;6.83;92.16;99862.47;4925213;29;20036;-81
2022/01/17 00:51:24;;;;;;;21.02;5.53;;;;;;;6.84;83.40;99865.97;4909403;29;20028;-82
2022/01/17 00:53:51;;;;;;;25.45;7.00;;;;;;;6.99;85.04;99901.44;4879045;29;20032;-82
2022/01/17 00:56:19;;;;;;;26.83;6.53;;;;;;;7.05;82.85;99847.16;4908681;29;20366;-82
2022/01/17 00:58:44;;;;;;;25.20;5.45;;;;;;;6.89;83.31;99919.72;4908238;29;20028;-80
2022/01/17 01:01:10;;;;;;;22.85;5.43;;;;;;;6.86;83.16;99890.69;4926541;29;20040;-81
2022/01/17 01:03:36;;;;;;;28.00;6.03;;;;;;;6.82;82.12;99898.28;4908013;29;20047;-81
2022/01/17 01:06:02;;;;;;;20.20;6.10;;;;;;;6.77;76.19;99873.13;4925868;29;20032;-82
2022/01/17 01:08:27;;;;;;;18.65;6.18;;;;;;;6.86;73.73;99855.91;4908356;29;20024;-82
2022/01/17 01:10:53;;;;;;;22.33;5.53;;;;;;;6.88;74.34;99918.03;4926595;29;20419;-81
2022/01/17 01:13:22;;;;;;;15.07;4.80;;;;;;;6.75;74.21;99915.28;4924190;29;20035;-81
2022/01/17 01:16:09;;;;;;;26.05;4.93;;;;;;;6.82;74.84;99965.13;4893910;29;20332;-81
2022/01/17 01:18:39;;;;;;;12.32;3.22;;;;;;;6.69;70.51;99919.59;4913690;29;20091;-82
2022/01/17 01:29:03;;;;;;;9.50;2.10;;;;;;;6.33;68.35;99936.56;4925578;29;20071;-83
2022/01/17 01:31:44;;;;;;;7.72;2.20;;;;;;;6.45;65.67;99963.59;4889807;29;20052;-81
2022/01/17 01:34:10;;;;;;;9.45;2.30;;;;;;;6.40;64.20;99958.00;4925554;29;20032;-83
2022/01/17 01:36:36;;;;;;;8.32;2.10;;;;;;;6.35;63.80;99955.06;4908171;29;20413;-82
2022/01/17 01:39:04;;;;;;;12.85;2.35;;;;;;;6.13;62.91;99945.44;4909242;29;20052;-80
2022/01/17 01:41:36;;;;;;;9.48;2.30;;;;;;;6.03;63.26;99999.16;4925502;29;20028;-82
2022/01/17 01:44:03;;;;;;;8.07;1.60;;;;;;;5.89;65.35;100006.16;4891985;29;20099;-79
2022/01/17 01:46:28;;;;;;;9.90;2.72;;;;;;;5.73;55.15;100068.63;4886331;29;20032;-80
2022/01/17 01:48:54;;;;;;;9.82;1.88;;;;;;;5.82;56.00;100062.13;4901135;29;20173;-80
2022/01/17 01:51:20;;;;;;;10.20;1.83;;;;;;;5.64;57.26;100048.38;4908430;29;20068;-80
2022/01/17 01:53:45;;;;;;;9.82;1.95;;;;;;;5.37;56.96;100032.00;4914461;29;20032;-81
2022/01/17 01:56:11;;;;;;;8.35;1.75;;;;;;;5.41;57.83;100069.81;4919376;29;20032;-81
2022/01/17 01:58:39;;;;;;;10.65;2.10;;;;;;;5.61;54.09;100065.56;4902941;29;20478;-80
2022/01/17 02:01:04;;;;;;;10.35;2.20;;;;;;;5.58;55.03;100030.41;4919730;29;20059;-80
2022/01/17 02:03:30;;;;;;;11.65;2.45;;;;;;;5.56;55.34;100061.78;4904153;29;20710;-80
2022/01/17 02:05:55;;;;;;;9.07;2.88;;;;;;;5.35;52.97;100097.22;4919151;29;20028;-79
2022/01/17 02:08:21;;;;;;;4.68;1.10;;;;;;;5.22;53.72;100067.69;4923190;29;20032;-79
2022/01/17 02:10:46;;;;;;;6.57;1.80;;;;;;;5.19;54.87;100115.03;4904815;29;20435;-80
2022/01/17 02:13:12;;;;;;;9.50;1.92;;;;;;;5.12;52.73;100153.28;4919133;29;20024;-80
2022/01/17 02:15:39;;;;;;;7.40;1.90;;;;;;;5.07;53.76;100142.34;4920522;29;20071;-80
2022/01/17 02:18:07;;;;;;;6.57;1.60;;;;;;;5.00;52.25;100158.22;4890140;29;20203;-80
2022/01/17 02:20:43;;;;;;;8.45;1.98;;;;;;;4.93;54.23;100125.25;4904302;29;20028;-80
2022/01/17 02:23:10;;;;;;;10.73;1.63;;;;;;;4.73;55.60;100122.25;4922352;29;20034;-80
2022/01/17 02:25:35;;;;;;;10.68;1.95;;;;;;;4.68;51.36;100183.25;4904378;29;20600;-80
2022/01/17 02:28:02;;;;;;;6.07;1.08;;;;;;;4.76;52.85;100145.06;4921627;29;20031;-80
2022/01/17 02:30:31;;;;;;;8.02;1.60;;;;;;;4.46;55.44;100142.25;4889903;29;20509;-81
2022/01/17 02:32:58;;;;;;;6.28;2.08;;;;;;;4.53;50.54;100166.34;4905672;29;20032;-79
2022/01/17 02:35:24;;;;;;;10.63;1.73;;;;;;;4.41;54.84;100179.25;4901641;29;20143;-81
2022/01/17 02:37:51;;;;;;;10.35;1.70;;;;;;;4.37;51.52;100181.44;4923068;29;20027;-80
2022/01/17 02:40:19;;;;;;;5.82;0.85;;;;;;;4.40;52.34;100145.59;4923737;29;20168;-81
2022/01/17 02:42:56;;;;;;;5.68;1.25;;;;;;;4.25;51.83;100196.13;4906658;29;20033;-80
2022/01/17 02:48:11;;;;;;;5.32;1.27;;;;;;;4.18;53.54;100237.78;4925282;29;20530;-80
2022/01/17 02:50:39;;;;;;;5.70;1.25;;;;;;;4.06;49.64;100242.63;4907352;29;20767;-80
2022/01/17 02:53:10;;;;;;;4.45;1.20;;;;;;;4.11;49.19;100256.25;4893191;29;20024;-81
2022/01/17 02:55:37;;;;;;;3.53;1.02;;;;;;;4.07;49.45;100232.78;4926702;29;20042;-80
2022/01/17 02:58:03;;;;;;;4.95;0.80;;;;;;;4.02;48.94;100237.81;4923584;29;20123;-80
2022/01/17 03:00:28;;;;;;;3.63;1.08;;;;;;;3.99;46.06;100300.22;4905348;29;20499;-80
2022/01/17 03:02:54;;;;;;;3.88;1.15;;;;;;;3.98;46.42;100279.91;4907467;29;20064;-79
2022/01/17 03:05:21;;;;;;;7.72;1.23;;;;;;;3.96;45.57;100234.00;4923470;29;20044;-80
2022/01/17 03:07:48;;;;;;;6.38;1.05;;;;;;;3.94;44.99;100284.75;4907083;29;20032;-81
2022/01/17 03:13:12;;;;;;;5.70;1.10;;;;;;;3.80;46.34;100313.88;4925781;29;20103;-81
2022/01/17 03:15:39;;;;;;;5.35;1.10;;;;;;;3.82;46.85;100311.88;4908505;29;20545;-80
2022/01/17 03:18:06;;;;;;;8.68;1.55;;;;;;;3.75;48.11;100272.63;4893249;29;20044;-81
2022/01/17 03:20:34;;;;;;;5.47;1.33;;;;;;;3.68;48.04;100327.50;4908535;29;20028;-78
2022/01/17 03:23:00;;;;;;;9.02;1.25;;;;;;;3.69;48.71;100289.25;4927094;29;20046;-81
2022/01/17 03:25:26;;;;;;;5.18;1.00;;;;;;;3.59;49.63;100287.78;4919657;29;20156;-80
2022/01/17 03:27:51;;;;;;;3.80;1.05;;;;;;;3.45;51.20;100289.28;4890701;29;20033;-80
2022/01/17 03:30:16;;;;;;;3.80;1.27;;;;;;;3.54;51.70;100336.13;4861378;29;20028;-81
2022/01/17 03:32:42;;;;;;;4.47;1.42;;;;;;;3.47;51.81;100341.28;4904258;29;20137;-81
2022/01/17 03:35:07;;;;;;;7.45;1.30;;;;;;;3.52;50.48;100380.72;4909942;29;20043;-80
2022/01/17 03:37:33;;;;;;;8.05;1.92;;;;;;;3.58;50.71;100396.03;4910125;29;20031;-80
2022/01/17 03:39:58;;;;;;;5.47;1.15;;;;;;;3.51;52.57;100390.53;4908964;29;20028;-80
2022/01/17 03:42:24;;;;;;;5.65;1.40;;;;;;;3.48;52.71;100369.56;4927303;29;20127;-81
2022/01/17 03:44:50;;;;;;;5.40;1.20;;;;;;;3.52;50.45;100396.66;4926808;29;20051;-80
2022/01/17 03:47:16;;;;;;;6.15;1.45;;;;;;;3.51;50.34;100385.19;4910039;29;20032;-80
2022/01/17 03:49:48;;;;;;;7.25;1.25;;;;;;;3.44;49.19;100405.44;4912808;29;20036;-82
2022/01/17 03:52:13;;;;;;;7.85;2.03;;;;;;;3.38;47.21;100397.28;4914792;29;20028;-80
2022/01/17 03:54:39;;;;;;;4.63;1.13;;;;;;;3.48;48.88;100405.97;4911801;29;20068;-80
2022/01/17 03:57:04;;;;;;;5.18;1.40;;;;;;;3.38;48.75;100389.28;4922730;29;20047;-80
2022/01/17 03:59:30;;;;;;;5.95;1.52;;;;;;;3.43;50.86;100409.09;4905242;29;20032;-80
2022/01/17 04:01:56;;;;;;;6.75;1.20;;;;;;;3.34;50.18;100395.94;4905778;29;20407;-80
2022/01/17 04:04:21;;;;;;;7.38;1.35;;;;;;;3.40;49.67;100396.13;4890612;29;20095;-81
2022/01/17 04:06:47;;;;;;;2.95;1.33;;;;;;;3.43;48.93;100448.16;4921389;29;20028;-80
2022/01/17 04:09:12;;;;;;;7.25;1.10;;;;;;;3.34;50.04;100433.19;4889782;29;20028;-80
2022/01/17 04:11:38;;;;;;;6.97;1.83;;;;;;;3.26;48.61;100392.28;4890621;29;20115;-80
2022/01/17 04:14:06;;;;;;;7.65;1.95;;;;;;;3.35;48.04;100458.78;4922981;29;20042;-81
2022/01/17 04:16:31;;;;;;;5.55;1.15;;;;;;;3.35;50.11;100458.78;4906167;29;20476;-80
2022/01/17 04:18:57;;;;;;;6.97;1.40;;;;;;;3.36;51.46;100437.34;4906846;29;20036;-80
2022/01/17 04:21:22;;;;;;;3.72;1.10;;;;;;;3.44;51.72;100463.13;4906003;29;20384;-80
2022/01/17 04:23:48;;;;;;;5.40;1.00;;;;;;;3.39;51.92;100454.81;4923400;29;20036;-80
2022/01/17 04:26:14;;;;;;;4.03;1.08;;;;;;;3.45;53.16;100491.41;4922984;29;20411;-80
2022/01/17 04:28:40;;;;;;;6.90;1.05;;;;;;;3.63;53.12;100491.28;4922547;29;20063;-81
2022/01/17 04:31:05;;;;;;;5.55;1.25;;;;;;;3.59;55.76;100480.16;4921627;29;20039;-80
2022/01/17 04:33:31;;;;;;;6.38;0.80;;;;;;;3.59;55.91;100482.81;4877628;29;20099;-80
2022/01/17 04:35:56;;;;;;;4.43;1.25;;;;;;;3.50;56.89;100467.81;4874636;29;20028;-80
2022/01/17 04:38:22;;;;;;;5.97;1.48;;;;;;;3.63;56.96;100480.66;4923802;29;20033;-81
2022/01/17 04:40:50;;;;;;;9.77;2.25;;;;;;;3.66;56.52;100488.31;4909817;29;20032;-81
2022/01/17 04:45:43;;;;;;;5.97;1.25;;;;;;;3.69;54.48;100477.34;4926253;29;20538;-80
2022/01/17 04:48:09;;;;;;;7.20;1.50;;;;;;;3.65;53.84;100500.78;4911491;29;20032;-81
2022/01/17 04:50:34;;;;;;;7.18;1.20;;;;;;;3.58;53.35;100520.22;4912381;29;20040;-80
2022/01/17 04:53:01;;;;;;;5.25;1.05;;;;;;;3.52;55.54;100513.72;4931633;29;20133;-81
2022/01/17 04:55:28;;;;;;;8.38;1.40;;;;;;;3.45;58.86;100531.31;4893611;29;20032;-81
2022/01/17 04:57:56;;;;;;;6.55;1.40;;;;;;;3.56;59.52;100544.31;4925525;29;20034;-81
2022/01/17 05:00:25;;;;;;;10.98;1.92;;;;;;;3.47;59.68;100553.25;4910946;29;20107;-81
2022/01/17 05:02:51;;;;;;;10.90;1.58;;;;;;;3.60;57.86;100553.63;4909726;29;20338;-82
2022/01/17 05:05:17;;;;;;;5.90;1.75;;;;;;;3.64;53.20;100560.31;4909408;29;20048;-82
2022/01/17 05:07:42;;;;;;;5.82;1.15;;;;;;;3.65;53.76;100577.94;4908541;29;20087;-81
2022/01/17 05:10:12;;;;;;;5.13;1.38;;;;;;;3.63;53.47;100609.19;4892509;29;20076;-81
2022/01/17 05:12:38;;;;;;;7.00;1.40;;;;;;;3.55;54.93;100566.59;4907793;29;20013;-81
2022/01/17 05:15:17;;;;;;;5.90;1.30;;;;;;;3.63;52.58;100595.88;4909260;29;20035;-80
2022/01/17 05:17:54;;;;;;;5.50;1.77;;;;;;;3.53;55.08;100596.00;4909776;29;20024;-79
2022/01/17 05:20:21;;;;;;;7.78;1.27;;;;;;;3.57;53.94;100596.53;4909332;29;20108;-80
2022/01/17 05:22:47;;;;;;;8.98;1.10;;;;;;;3.57;53.52;100598.34;4904863;29;20096;-80
2022/01/17 05:25:12;;;;;;;5.68;1.20;;;;;;;3.61;56.51;100615.66;4908578;29;20029;-82
2022/01/17 05:27:38;;;;;;;6.75;1.25;;;;;;;3.56;54.38;100616.16;4912391;29;20096;-81
2022/01/17 05:30:06;;;;;;;6.38;1.58;;;;;;;3.61;55.90;100637.81;4911429;29;20089;-81
2022/01/17 05:32:32;;;;;;;17.35;1.05;;;;;;;3.42;52.68;100616.75;4907053;29;20451;-78
2022/01/17 05:34:58;;;;;;;6.88;1.67;;;;;;;3.46;53.61;100637.53;4899465;29;20043;-80
2022/01/17 05:37:23;;;;;;;6.82;1.15;;;;;;;3.38;52.83;100640.16;4901598;29;20088;-79
2022/01/17 05:39:49;;;;;;;7.88;1.40;;;;;;;3.53;52.64;100659.03;4906506;29;20048;-82
2022/01/17 05:42:16;;;;;;;4.88;1.35;;;;;;;3.59;51.84;100673.53;4908665;29;20400;-82
2022/01/17 05:44:41;;;;;;;4.82;0.80;;;;;;;3.37;52.74;100630.50;4887686;29;20305;-80
2022/01/17 05:47:07;;;;;;;6.93;1.65;;;;;;;3.49;52.64;100670.97;4899260;29;20043;-81
2022/01/17 05:49:32;;;;;;;5.85;1.45;;;;;;;3.45;54.96;100651.84;4916951;29;20044;-82
2022/01/17 05:51:58;;;;;;;5.72;1.23;;;;;;;3.30;54.02;100640.09;4896391;29;20032;-79
2022/01/17 05:54:23;;;;;;;9.68;1.38;;;;;;;3.46;53.66;100677.44;4897916;29;20065;-82
2022/01/17 05:56:48;;;;;;;9.00;1.23;;;;;;;3.36;56.24;100721.09;4915966;29;20348;-78
2022/01/17 05:59:14;;;;;;;5.30;1.05;;;;;;;3.47;55.03;100739.44;4890672;29;20040;-81
2022/01/17 06:01:42;;;;;;;9.32;1.80;;;;;;;3.44;51.20;100719.31;4904470;29;20419;-83
2022/01/17 06:04:08;;;;;;;8.90;1.67;;;;;;;3.47;55.02;100719.00;4918488;29;20080;-82
2022/01/17 06:06:33;;;;;;;6.32;1.20;;;;;;;3.53;50.78;100729.03;4916311;29;20403;-81
2022/01/17 06:08:59;;;;;;;6.28;1.40;;;;;;;3.45;51.49;100733.47;4926086;29;20036;-81
2022/01/17 06:11:24;;;;;;;7.07;1.25;;;;;;;3.35;51.29;100709.63;4907024;29;20959;-81
2022/01/17 06:13:50;;;;;;;5.50;1.40;;;;;;;3.53;52.30;100762.78;4904149;29;20024;-81
2022/01/17 06:16:15;;;;;;;14.05;1.98;;;;;;;3.45;52.53;100738.78;4898357;29;20557;-79
2022/01/17 06:18:41;;;;;;;11.82;1.83;;;;;;;3.58;52.02;100719.75;4908445;29;20032;-80
2022/01/17 06:21:06;;;;;;;14.05;2.47;;;;;;;3.53;52.75;100744.16;4918414;29;20024;-80
2022/01/17 06:23:32;;;;;;;10.13;1.70;;;;;;;3.54;52.06;100756.47;4884642;29;20084;-79
2022/01/17 06:25:57;;;;;;;6.60;0.98;;;;;;;3.39;52.31;100758.00;4917184;29;20107;-79
2022/01/17 06:28:23;;;;;;;3.35;0.90;;;;;;;3.36;49.18;100769.78;4888934;29;20035;-80
2022/01/17 06:30:50;;;;;;;7.97;1.58;;;;;;;3.41;51.64;100836.69;4902996;29;20116;-84
2022/01/17 06:33:15;;;;;;;7.75;1.90;;;;;;;3.48;55.63;100829.75;4926476;29;20040;-81
2022/01/17 06:35:41;;;;;;;7.05;1.45;;;;;;;3.42;54.29;100822.38;4893039;29;20162;-82
2022/01/17 06:38:06;;;;;;;8.93;1.27;;;;;;;3.48;51.43;100866.16;4923820;29;20032;-84
2022/01/17 06:40:32;;;;;;;5.03;1.38;;;;;;;3.48;52.52;100879.47;4908638;29;20039;-86
2022/01/17 06:42:57;;;;;;;5.68;1.27;;;;;;;3.45;54.17;100901.03;4923462;29;20068;-86
2022/01/17 06:45:23;;;;;;;5.63;1.25;;;;;;;3.44;55.27;100917.97;4944188;29;20024;-85
2022/01/17 06:47:48;;;;;;;5.78;1.50;;;;;;;3.36;52.09;100891.31;4911590;29;20028;-85
2022/01/17 06:50:14;;;;;;;4.28;1.08;;;;;;;3.15;51.26;100884.44;4941276;29;20032;-86
2022/01/17 06:52:40;;;;;;;4.22;1.10;;;;;;;3.35;53.10;100908.25;4909218;29;20455;-86
2022/01/17 06:55:08;;;;;;;4.60;1.10;;;;;;;3.41;54.16;100920.94;4939581;29;20055;-84
2022/01/17 06:57:34;;;;;;;4.78;0.75;;;;;;;3.41;55.80;100913.81;4956973;29;20024;-85
2022/01/17 07:00:00;;;;;;;4.47;1.15;;;;;;;3.25;54.64;100874.56;4924756;29;20032;-84
2022/01/17 07:02:25;;;;;;;10.82;2.00;;;;;;;3.46;54.01;100886.75;4931783;29;20036;-86
2022/01/17 07:04:51;;;;;;;6.75;1.50;;;;;;;3.30;55.84;100893.56;4903016;29;20040;-86
2022/01/17 07:07:17;;;;;;;6.80;1.42;;;;;;;3.37;57.26;100888.47;4944071;29;20012;-87
2022/01/17 07:09:43;;;;;;;7.10;1.35;;;;;;;3.32;56.22;100885.44;4911337;29;20066;-85
2022/01/17 07:12:09;;;;;;;4.85;0.82;;;;;;;3.31;55.82;100891.72;4940796;29;20008;-84
2022/01/17 07:14:38;;;;;;;8.15;1.50;;;;;;;3.16;55.18;100949.91;4907158;29;20032;-84
2022/01/17 07:17:04;;;;;;;7.25;1.90;;;;;;;3.48;56.40;100956.63;4903577;29;20024;-86
2022/01/17 07:19:29;;;;;;;9.57;2.13;;;;;;;3.51;57.51;100958.97;4923698;29;20032;-86
2022/01/17 07:21:54;;;;;;;6.47;1.35;;;;;;;3.45;58.91;100948.94;4919976;29;20050;-84
2022/01/17 07:24:20;;;;;;;4.20;1.10;;;;;;;3.40;55.53;100967.16;4922219;29;20040;-85
2022/01/17 07:26:45;;;;;;;4.80;1.10;;;;;;;3.41;53.96;100947.53;4923033;29;20048;-86
2022/01/17 07:29:10;;;;;;;6.28;0.90;;;;;;;3.48;53.79;100961.94;4922297;29;20065;-86
2022/01/17 07:31:37;;;;;;;7.28;1.50;;;;;;;3.46;56.14;100980.69;4905895;29;20036;-85
2022/01/17 07:34:03;;;;;;;5.43;1.63;;;;;;;3.50;54.83;100994.53;4904152;29;20431;-86
2022/01/17 07:36:29;;;;;;;8.38;1.15;;;;;;;3.27;54.84;100967.50;4904948;29;20064;-84
2022/01/17 07:38:55;;;;;;;6.15;1.27;;;;;;;3.28;55.44;101014.41;4935387;29;20032;-84
2022/01/17 07:41:20;;;;;;;9.52;1.27;;;;;;;3.52;57.34;101009.38;4936882;29;20027;-84
2022/01/17 07:43:47;;;;;;;8.02;1.30;;;;;;;3.43;55.80;101015.56;4922638;29;20103;-85
2022/01/17 07:46:22;;;;;;;10.35;1.80;;;;;;;3.55;55.93;101018.06;4908647;29;20099;-85
2022/01/17 07:51:33;;;;;;;7.90;1.67;;;;;;;3.32;57.15;100978.53;4935121;29;20038;-85
2022/01/17 07:54:00;;;;;;;6.35;1.60;;;;;;;3.53;55.14;101056.25;4921688;29;20032;-84
2022/01/17 07:56:25;;;;;;;5.55;0.80;;;;;;;3.57;54.39;101043.50;4915157;29;20031;-86
2022/01/17 07:58:51;;;;;;;4.75;1.17;;;;;;;3.61;58.31;101060.88;4918813;29;20032;-82
2022/01/17 08:01:16;;;;;;;8.70;1.80;;;;;;;3.62;59.28;101062.53;4918924;29;20050;-86
2022/01/17 08:03:42;;;;;;;9.75;2.25;;;;;;;3.61;57.92;101057.34;4919171;29;20052;-86
2022/01/17 08:06:08;;;;;;;8.23;1.70;;;;;;;3.56;57.05;101063.13;4922254;29;20457;-86
2022/01/17 08:08:33;;;;;;;10.63;1.52;;;;;;;3.34;57.60;101037.72;4919474;29;20032;-86
2022/01/17 08:10:59;;;;;;;6.07;1.52;;;;;;;3.64;56.01;101039.28;4915583;29;20069;-85
2022/01/17 08:13:25;;;;;;;8.32;1.77;;;;;;;3.43;57.71;101009.41;4913638;29;20064;-85
2022/01/17 08:15:50;;;;;;;7.57;1.60;;;;;;;3.69;56.45;101015.72;4918698;29;20025;-86
2022/01/17 08:18:17;;;;;;;8.75;1.80;;;;;;;3.63;56.66;101045.56;4918325;29;20035;-85
2022/01/17 08:20:42;;;;;;;10.45;2.20;;;;;;;3.78;57.38;101087.69;4883656;29;20024;-85
2022/01/17 08:23:10;;;;;;;9.80;1.88;;;;;;;3.50;53.91;100970.59;4914836;29;20039;-86
2022/01/17 08:25:36;;;;;;;5.82;1.80;;;;;;;3.74;53.37;101066.69;4918599;29;20065;-86
2022/01/17 08:28:02;;;;;;;6.88;1.70;;;;;;;3.74;55.52;101058.69;4918972;29;20024;-85
2022/01/17 08:30:27;;;;;;;7.00;1.25;;;;;;;3.83;53.15;101061.44;4916533;29;20439;-85
2022/01/17 08:32:55;;;;;;;8.50;1.38;;;;;;;3.85;54.66;101157.97;4916152;29;20041;-84
2022/01/17 08:35:20;;;;;;;5.43;1.48;;;;;;;3.68;57.67;101106.34;4914454;29;20033;-82
2022/01/17 08:37:46;;;;;;;8.93;1.33;;;;;;;3.56;58.33;101097.72;4915997;29;20051;-84
2022/01/17 08:40:12;;;;;;;7.97;1.45;;;;;;;3.82;55.20;101151.13;4912807;29;20037;-86
2022/01/17 08:42:38;;;;;;;4.95;1.30;;;;;;;3.75;53.94;101102.13;4896247;29;20036;-85
2022/01/17 08:45:07;;;;;;;11.68;1.90;;;;;;;3.73;56.03;101152.81;4918210;29;20051;-84
2022/01/17 08:47:32;;;;;;;9.23;1.40;;;;;;;3.87;58.34;101179.94;4922693;29;20007;-84
2022/01/17 08:49:58;;;;;;;6.70;1.52;;;;;;;3.84;56.70;101221.03;4936347;29;20036;-84
2022/01/17 08:52:25;;;;;;;3.88;1.27;;;;;;;3.80;54.17;101211.63;4916737;29;20103;-84
2022/01/17 08:54:51;;;;;;;8.70;2.03;;;;;;;3.82;54.54;101150.28;4914020;29;20036;-84
2022/01/17 08:57:17;;;;;;;4.95;1.42;;;;;;;3.85;56.37;101227.19;4914030;29;20037;-85
2022/01/17 08:59:45;;;;;;;5.68;1.20;;;;;;;3.87;54.08;101196.75;4912932;29;20033;-84
2022/01/17 09:02:11;;;;;;;9.65;1.88;;;;;;;3.78;56.79;101179.00;4912937;29;20029;-81
2022/01/17 09:04:40;;;;;;;5.72;1.17;;;;;;;3.85;57.00;101206.72;4924857;29;20062;-83
2022/01/17 09:07:08;;;;;;;7.18;1.70;;;;;;;3.68;55.89;101195.00;4912142;29;20027;-85
2022/01/17 09:09:34;;;;;;;7.78;1.67;;;;;;;3.82;56.41;101203.50;4934222;29;20023;-84
2022/01/17 09:11:59;;;;;;;5.25;1.73;;;;;;;3.85;55.41;101206.72;4937726;28;20023;-84
2022/01/17 09:14:27;;;;;;;6.30;1.48;;;;;;;3.39;55.67;101160.50;4919064;29;20058;-84
2022/01/17 09:16:53;;;;;;;5.80;1.48;;;;;;;3.91;54.23;101231.94;4890318;29;20032;-85
2022/01/17 09:19:19;;;;;;;4.75;1.30;;;;;;;3.85;55.96;101232.50;4933894;29;20023;-81
2022/01/17 09:21:45;;;;;;;6.90;1.08;;;;;;;3.96;57.76;101256.28;4917793;29;20032;-82
2022/01/17 09:24:10;;;;;;;5.75;1.50;;;;;;;3.89;57.76;101268.50;4936255;29;20040;-83
2022/01/17 09:26:36;;;;;;;7.35;1.17;;;;;;;3.92;54.76;101223.78;4949138;29;20063;-83
2022/01/17 09:29:02;;;;;;;6.50;1.30;;;;;;;3.79;55.42;101249.06;4916791;29;20036;-83
2022/01/17 09:31:29;;;;;;;6.40;1.70;;;;;;;3.94;56.04;101280.41;4915829;29;20046;-82
2022/01/17 09:33:54;;;;;;;4.45;1.27;;;;;;;3.96;55.35;101272.25;4909488;29;20040;-83
2022/01/17 09:36:20;;;;;;;4.70;1.33;;;;;;;3.89;55.25;101272.00;4925427;29;20027;-83
2022/01/17 09:38:46;;;;;;;8.85;1.40;;;;;;;3.94;56.76;101282.19;4915799;29;20036;-83
2022/01/17 09:41:12;;;;;;;7.78;2.10;;;;;;;3.85;54.07;101262.63;4952022;29;20062;-84
2022/01/17 09:43:38;;;;;;;6.97;1.15;;;;;;;4.03;55.00;101321.28;4930548;29;20028;-85
2022/01/17 09:46:04;;;;;;;7.28;1.65;;;;;;;3.95;56.24;101284.72;4898509;29;20080;-81
2022/01/17 09:48:37;;;;;;;8.57;2.20;;;;;;;4.03;53.15;101313.28;4932248;29;20050;-83
2022/01/17 09:51:17;;;;;;;6.75;1.38;;;;;;;3.92;53.46;101301.00;4919865;29;20028;-84
2022/01/17 09:53:44;;;;;;;6.95;1.40;;;;;;;4.10;54.74;101364.16;4932112;29;20038;-84
2022/01/17 09:56:12;;;;;;;4.47;0.90;;;;;;;4.03;55.05;101347.91;4902057;29;20036;-84
2022/01/17 09:58:40;;;;;;;7.13;1.55;;;;;;;4.04;55.89;101357.59;4920693;29;20028;-84
2022/01/17 10:01:07;;;;;;;10.00;1.25;;;;;;;4.02;56.80;101362.22;4939571;29;20031;-85
2022/01/17 10:03:33;;;;;;;9.18;1.50;;;;;;;4.09;56.22;101355.34;4910459;29;20107;-83
2022/01/17 10:05:59;;;;;;;6.30;1.20;;;;;;;4.15;56.32;101393.88;4939204;29;20020;-86
2022/01/17 10:08:25;;;;;;;5.47;1.15;;;;;;;4.12;55.47;101408.31;4939012;29;20080;-82
2022/01/17 10:11:01;;;;;;;5.30;1.02;;;;;;;4.04;55.78;101384.22;4909053;29;21194;-84
2022/01/17 10:13:38;;;;;;;7.35;1.38;;;;;;;4.18;56.13;101418.41;4929382;29;20028;-83
2022/01/17 10:16:24;;;;;;;9.35;1.30;;;;;;;4.19;56.26;101435.22;4929706;29;20016;-84
2022/01/17 10:18:56;;;;;;;6.38;1.75;;;;;;;4.19;57.43;101444.06;4932169;29;20028;-83
2022/01/17 10:21:48;;;;;;;7.18;1.48;;;;;;;4.20;57.35;101451.03;4935608;29;20419;-83
2022/01/17 10:35:14;;;;;;;5.88;1.10;;;;;;;4.24;57.10;101487.09;4943363;29;20521;-86
2022/01/17 10:37:40;;;;;;;6.35;1.33;;;;;;;4.33;55.99;101521.84;4926570;29;20020;-86
2022/01/17 10:40:15;;;;;;;4.13;1.00;;;;;;;4.27;54.54;101519.75;4939977;29;20036;-86
2022/01/17 10:42:47;;;;;;;6.05;1.33;;;;;;;4.39;56.09;101531.97;4949495;29;20048;-84
2022/01/17 10:45:24;;;;;;;8.40;1.35;;;;;;;4.39;58.56;101539.94;4937674;29;20091;-86
2022/01/17 10:47:53;;;;;;;5.30;1.42;;;;;;;4.35;56.81;101551.88;4939985;29;20036;-85
2022/01/17 10:50:21;;;;;;;5.88;0.98;;;;;;;4.30;54.76;101536.28;4939512;29;20035;-87
2022/01/17 10:52:49;;;;;;;7.15;1.23;;;;;;;4.38;55.45;101535.63;4920006;29;20066;-85
2022/01/17 10:55:21;;;;;;;3.75;0.95;;;;;;;4.52;55.57;101576.97;4904241;29;20025;-86
2022/01/17 10:57:49;;;;;;;6.82;1.23;;;;;;;4.44;52.87;101580.34;4919097;29;20470;-85
2022/01/17 11:00:22;;;;;;;6.03;1.45;;;;;;;4.47;54.49;101550.75;4911876;29;20043;-86
2022/01/17 11:02:51;;;;;;;4.15;0.70;;;;;;;4.56;53.20;101581.03;4923088;29;20035;-86
2022/01/17 11:05:19;;;;;;;5.13;1.00;;;;;;;4.51;55.99;101586.81;4936670;29;20183;-85
2022/01/17 11:07:47;;;;;;;6.38;1.48;;;;;;;4.53;55.52;101563.50;4917978;29;20044;-87
2022/01/17 11:10:21;;;;;;;5.10;0.85;;;;;;;4.33;54.51;101536.00;4918288;29;20029;-86
2022/01/17 11:12:49;;;;;;;4.53;1.33;;;;;;;4.50;55.20;101563.78;4932245;29;20102;-86
2022/01/17 11:15:15;;;;;;;5.05;1.10;;;;;;;4.56;55.32;101592.53;4934514;29;20264;-84
2022/01/17 11:17:49;;;;;;;9.85;1.50;;;;;;;4.46;54.60;101602.34;4896050;29;20441;-86
2022/01/17 11:20:15;;;;;;;4.80;1.10;;;;;;;4.57;55.78;101596.91;4917157;29;20121;-86
2022/01/17 11:22:44;;;;;;;5.55;1.30;;;;;;;4.46;54.88;101589.03;4915481;29;20028;-86
2022/01/17 11:25:23;;;;;;;6.80;1.17;;;;;;;4.34;54.72;101606.13;4905587;29;20017;-87
2022/01/17 11:27:49;;;;;;;8.07;1.10;;;;;;;4.45;55.12;101609.50;4920709;29;20032;-86
2022/01/17 11:30:16;;;;;;;4.28;1.15;;;;;;;4.43;55.00;101600.81;4933048;29;20059;-84
2022/01/17 11:32:42;;;;;;;7.70;1.20;;;;;;;4.59;58.09;101626.91;4899419;29;20048;-86
2022/01/17 11:35:08;;;;;;;3.97;0.95;;;;;;;4.54;60.12;101631.84;4890372;29;20359;-86
2022/01/17 11:37:37;;;;;;;7.05;1.10;;;;;;;4.39;57.07;101617.22;4931660;29;20029;-86
2022/01/17 11:40:05;;;;;;;7.00;1.42;;;;;;;4.57;59.58;101652.00;4929990;29;20091;-86
2022/01/17 11:42:33;;;;;;;8.15;1.10;;;;;;;4.63;59.09;101673.63;4919514;29;20068;-86
2022/01/17 11:44:59;;;;;;;5.82;1.02;;;;;;;4.62;57.22;101681.78;5042937;23;20179;-86
2022/01/17 11:47:49;;;;;;;5.25;0.85;;;;;;;4.62;55.44;101647.13;4933046;23;20059;-86
2022/01/17 11:50:27;;;;;;;6.35;0.93;;;;;;;4.63;56.25;101662.97;4935288;29;20053;-87
2022/01/17 11:52:56;;;;;;;6.75;1.00;;;;;;;3.82;56.52;101549.56;4919022;29;20088;-86
2022/01/17 11:58:18;;;;;;;4.78;1.00;;;;;;;4.38;55.10;101613.72;4903676;29;20065;-85
2022/01/17 12:00:44;;;;;;;5.75;1.10;;;;;;;3.64;56.12;101544.03;4934486;29;20030;-85
2022/01/17 12:03:21;;;;;;;6.63;1.02;;;;;;;4.14;55.95;101632.75;4901507;29;20053;-85
2022/01/17 12:05:49;;;;;;;5.97;1.33;;;;;;;4.05;56.18;101628.25;4914906;29;20033;-86